createdAt,value
2022-07-27T00:01:39.350Z,100.00
2022-07-27T00:04:07.850Z,100.00
2022-07-27T00:06:37.543Z,100.00
2022-07-27T00:09:05.910Z,100.00
2022-07-27T00:11:34.220Z,100.00
2022-07-27T00:14:02.754Z,100.00
2022-07-27T00:16:31.317Z,100.00
2022-07-27T00:19:00.087Z,100.00
2022-07-27T00:21:28.794Z,100.00
2022-07-27T00:23:57.125Z,100.00
2022-07-27T00:26:25.459Z,100.00
2022-07-27T00:28:53.846Z,100.00
2022-07-27T00:31:22.247Z,100.00
2022-07-27T00:33:50.808Z,100.00
2022-07-27T00:36:19.237Z,100.00
2022-07-27T00:38:47.517Z,100.00
2022-07-27T00:41:15.955Z,100.00
2022-07-27T00:43:55.698Z,100.00
2022-07-27T00:46:25.161Z,100.00
2022-07-27T00:48:54.155Z,100.00
2022-07-27T00:51:23.605Z,100.00
2022-07-27T00:53:53.733Z,100.00
2022-07-27T00:56:22.882Z,100.00
2022-07-27T00:58:54.608Z,100.00
2022-07-27T01:01:23.007Z,100.00
2022-07-27T01:03:51.408Z,100.00
2022-07-27T01:06:23.284Z,100.00
2022-07-27T01:09:17.341Z,100.00
2022-07-27T01:11:47.490Z,100.00
2022-07-27T01:14:16.998Z,100.00
2022-07-27T01:16:45.716Z,100.00
2022-07-27T01:19:15.924Z,100.00
2022-07-27T01:21:44.816Z,100.00
2022-07-27T01:24:14.421Z,100.00
2022-07-27T01:26:43.400Z,100.00
2022-07-27T01:29:12.311Z,100.00
2022-07-27T01:31:41.465Z,100.00
2022-07-27T01:34:10.091Z,100.00
2022-07-27T01:36:38.706Z,100.00
2022-07-27T01:39:07.428Z,100.00
2022-07-27T01:41:35.831Z,100.00
2022-07-27T01:44:04.649Z,100.00
2022-07-27T01:46:33.093Z,100.00
2022-07-27T01:49:02.061Z,100.00
2022-07-27T01:51:30.576Z,100.00
2022-07-27T01:54:01.630Z,100.00
2022-07-27T01:56:30.007Z,100.00
2022-07-27T01:58:59.086Z,100.00
2022-07-27T02:01:27.642Z,100.00
2022-07-27T02:03:56.239Z,100.00
2022-07-27T02:06:24.803Z,100.00
2022-07-27T02:08:53.174Z,100.00
2022-07-27T02:11:40.187Z,100.00
2022-07-27T02:14:08.835Z,100.00
2022-07-27T02:16:37.241Z,100.00
2022-07-27T02:19:06.540Z,100.00
2022-07-27T02:21:37.283Z,100.00
2022-07-27T02:24:06.570Z,100.00
2022-07-27T02:26:35.036Z,100.00
2022-07-27T02:29:03.633Z,100.00
2022-07-27T02:31:32.970Z,100.00
2022-07-27T02:34:01.785Z,100.00
2022-07-27T02:36:30.732Z,100.00
2022-07-27T02:38:59.198Z,100.00
2022-07-27T02:41:27.926Z,100.00
2022-07-27T02:43:56.265Z,100.00
2022-07-27T02:46:25.829Z,100.00
2022-07-27T02:48:54.463Z,100.00
2022-07-27T02:51:23.136Z,100.00
2022-07-27T02:53:52.005Z,100.00
2022-07-27T02:56:20.512Z,100.00
2022-07-27T02:58:55.822Z,100.00
2022-07-27T03:01:24.511Z,100.00
2022-07-27T03:03:53.801Z,100.00
2022-07-27T03:06:22.418Z,100.00
2022-07-27T03:08:50.777Z,100.00
2022-07-27T03:11:19.220Z,100.00
2022-07-27T03:13:47.737Z,100.00
2022-07-27T03:16:16.581Z,100.00
2022-07-27T03:18:49.670Z,100.00
2022-07-27T03:21:18.669Z,100.00
2022-07-27T03:23:47.085Z,100.00
2022-07-27T03:26:16.250Z,100.00
2022-07-27T03:28:44.778Z,100.00
2022-07-27T03:31:13.354Z,100.00
2022-07-27T03:33:41.804Z,100.00
2022-07-27T03:36:10.159Z,100.00
2022-07-27T03:38:38.774Z,100.00
2022-07-27T03:41:07.606Z,100.00
2022-07-27T03:43:36.225Z,100.00
2022-07-27T03:46:04.689Z,100.00
2022-07-27T03:48:33.318Z,100.00
2022-07-27T03:51:01.760Z,100.00
2022-07-27T03:53:30.152Z,100.00
2022-07-27T03:55:58.537Z,100.00
2022-07-27T03:58:27.177Z,100.00
2022-07-27T04:00:55.805Z,100.00
2022-07-27T04:03:24.335Z,100.00
2022-07-27T04:05:52.811Z,100.00
2022-07-27T04:08:21.408Z,100.00
2022-07-27T04:10:49.845Z,100.00
2022-07-27T04:13:21.583Z,100.00
2022-07-27T04:15:50.664Z,100.00
2022-07-27T04:18:19.072Z,100.00
2022-07-27T04:20:47.792Z,100.00
2022-07-27T04:23:16.171Z,100.00
2022-07-27T04:25:44.616Z,100.00
2022-07-27T04:28:13.414Z,100.00
2022-07-27T04:30:41.851Z,100.00
2022-07-27T04:33:11.059Z,100.00
2022-07-27T04:35:42.865Z,100.00
2022-07-27T04:38:11.374Z,100.00
2022-07-27T04:40:39.699Z,100.00
2022-07-27T04:43:08.110Z,100.00
2022-07-27T04:45:36.544Z,100.00
2022-07-27T04:48:10.488Z,100.00
2022-07-27T04:50:43.503Z,100.00
2022-07-27T04:53:12.907Z,100.00
2022-07-27T04:55:45.768Z,100.00
2022-07-27T04:58:15.318Z,100.00
2022-07-27T05:00:46.762Z,100.00
2022-07-27T05:03:15.237Z,100.00
2022-07-27T05:05:49.615Z,100.00
2022-07-27T05:08:19.905Z,100.00
2022-07-27T05:10:48.475Z,100.00
2022-07-27T05:13:22.923Z,100.00
2022-07-27T05:15:55.062Z,100.00
2022-07-27T05:18:25.956Z,100.00
2022-07-27T05:20:54.391Z,100.00
2022-07-27T05:23:22.802Z,100.00
2022-07-27T05:25:51.179Z,100.00
2022-07-27T05:28:19.844Z,100.00
2022-07-27T05:30:48.362Z,100.00
2022-07-27T05:33:16.911Z,100.00
2022-07-27T05:35:45.399Z,100.00
2022-07-27T05:38:13.921Z,100.00
2022-07-27T05:40:46.948Z,100.00
2022-07-27T05:43:15.335Z,100.00
2022-07-27T05:45:43.772Z,100.00
2022-07-27T05:48:12.232Z,100.00
2022-07-27T05:50:40.791Z,100.00
2022-07-27T05:53:09.845Z,100.00
2022-07-27T05:55:38.186Z,100.00
2022-07-27T05:58:07.262Z,100.00
2022-07-27T06:00:36.285Z,100.00
2022-07-27T06:03:04.798Z,100.00
2022-07-27T06:05:34.951Z,100.00
2022-07-27T06:08:08.885Z,100.00
2022-07-27T06:10:41.392Z,100.00
2022-07-27T06:13:12.178Z,100.00
2022-07-27T06:15:40.763Z,100.00
2022-07-27T06:18:18.193Z,99.36
2022-07-27T06:20:46.905Z,99.38
2022-07-27T06:23:15.224Z,98.60
2022-07-27T06:25:43.716Z,99.27
2022-07-27T06:28:12.111Z,98.75
2022-07-27T06:30:43.161Z,98.09
2022-07-27T06:33:21.866Z,97.35
2022-07-27T06:35:52.592Z,97.23
2022-07-27T06:38:23.016Z,96.74
2022-07-27T06:40:54.884Z,96.61
2022-07-27T06:43:27.821Z,95.12
2022-07-27T06:45:59.787Z,94.25
2022-07-27T06:48:28.297Z,93.59
2022-07-27T06:50:57.204Z,92.28
2022-07-27T06:53:27.036Z,91.54
2022-07-27T06:55:55.825Z,91.19
2022-07-27T06:58:24.231Z,90.08
2022-07-27T07:00:52.778Z,90.10
2022-07-27T07:03:21.425Z,88.80
2022-07-27T07:05:49.954Z,88.17
2022-07-27T07:08:18.739Z,87.00
2022-07-27T07:10:47.440Z,85.72
2022-07-27T07:13:16.200Z,85.14
2022-07-27T07:15:44.616Z,83.55
2022-07-27T07:18:13.313Z,84.48
2022-07-27T07:20:42.372Z,84.60
2022-07-27T07:23:11.479Z,84.67
2022-07-27T07:25:40.835Z,84.52
2022-07-27T07:28:09.653Z,84.66
2022-07-27T07:30:38.261Z,86.02
2022-07-27T07:33:07.010Z,85.63
2022-07-27T07:35:36.179Z,85.50
2022-07-27T07:38:04.701Z,83.90
2022-07-27T07:40:43.938Z,83.98
2022-07-27T07:43:13.738Z,83.39
2022-07-27T07:45:49.916Z,82.84
2022-07-27T07:48:22.132Z,81.50
2022-07-27T07:50:53.685Z,81.21
2022-07-27T07:53:23.746Z,80.58
2022-07-27T07:55:53.575Z,80.34
2022-07-27T07:58:22.351Z,79.28
2022-07-27T08:01:12.379Z,79.66
2022-07-27T08:03:41.164Z,79.95
2022-07-27T08:06:09.713Z,79.54
2022-07-27T08:08:38.230Z,80.38
2022-07-27T08:11:07.077Z,80.05
2022-07-27T08:13:35.397Z,79.77
2022-07-27T08:16:04.048Z,79.79
2022-07-27T08:18:32.867Z,79.11
2022-07-27T08:21:01.236Z,79.09
2022-07-27T08:23:31.791Z,79.32
2022-07-27T08:26:07.753Z,78.91
2022-07-27T08:28:37.360Z,77.30
2022-07-27T08:31:14.667Z,75.66
2022-07-27T08:33:45.569Z,75.60
2022-07-27T08:36:15.939Z,75.88
2022-07-27T08:38:44.344Z,75.48
2022-07-27T08:41:15.367Z,75.04
2022-07-27T08:43:45.684Z,74.81
2022-07-27T08:46:17.594Z,73.49
2022-07-27T08:48:46.463Z,72.20
2022-07-27T08:51:15.248Z,71.26
2022-07-27T08:53:53.895Z,70.74
2022-07-27T08:56:28.308Z,70.59
2022-07-27T08:59:16.087Z,69.86
2022-07-27T09:01:44.977Z,68.19
2022-07-27T09:04:13.417Z,69.25
2022-07-27T09:06:54.442Z,68.11
2022-07-27T09:09:22.749Z,66.90
2022-07-27T09:12:11.456Z,64.64
2022-07-27T09:14:42.340Z,66.78
2022-07-27T09:17:47.896Z,67.27
2022-07-27T09:20:19.765Z,66.88
2022-07-27T09:22:56.286Z,66.78
2022-07-27T09:25:52.205Z,68.04
2022-07-27T09:28:14.584Z,66.98
2022-07-27T09:30:43.858Z,66.44
2022-07-27T09:33:15.347Z,65.72
2022-07-27T09:35:46.270Z,65.62
2022-07-27T09:38:21.764Z,63.91
2022-07-27T09:41:04.656Z,63.53
2022-07-27T09:46:40.848Z,65.38
2022-07-27T09:49:29.292Z,61.50
2022-07-27T09:52:01.391Z,63.44
2022-07-27T09:54:43.569Z,61.37
2022-07-27T09:57:11.963Z,64.56
2022-07-27T09:59:40.538Z,65.02
2022-07-27T10:02:09.226Z,64.41
2022-07-27T10:04:38.192Z,64.39
2022-07-27T10:07:13.449Z,63.90
2022-07-27T10:09:42.533Z,63.87
2022-07-27T10:12:13.617Z,63.97
2022-07-27T10:14:42.419Z,63.84
2022-07-27T10:17:14.332Z,63.43
2022-07-27T10:19:50.041Z,63.07
2022-07-27T10:22:55.715Z,61.83
2022-07-27T10:25:25.572Z,64.49
2022-07-27T10:28:17.868Z,63.11
2022-07-27T10:30:54.051Z,64.47
2022-07-27T10:33:42.888Z,63.55
2022-07-27T10:36:17.162Z,64.38
2022-07-27T10:38:48.753Z,64.33
2022-07-27T10:41:46.984Z,64.11
2022-07-27T10:44:17.972Z,64.77
2022-07-27T10:47:04.654Z,64.12
2022-07-27T10:49:40.574Z,63.84
2022-07-27T10:52:44.823Z,63.14
2022-07-27T10:55:31.621Z,61.05
2022-07-27T10:58:03.095Z,63.74
2022-07-27T11:00:54.714Z,61.65
2022-07-27T11:03:26.822Z,64.44
2022-07-27T11:06:01.265Z,64.81
2022-07-27T11:08:48.484Z,65.46
2022-07-27T11:11:23.625Z,65.36
2022-07-27T11:13:58.699Z,66.10
2022-07-27T11:16:28.607Z,67.41
2022-07-27T11:19:07.043Z,67.01
2022-07-27T11:21:37.670Z,67.37
2022-07-27T11:24:13.675Z,67.60
2022-07-27T11:26:47.974Z,65.74
2022-07-27T11:29:18.715Z,65.83
2022-07-27T11:31:56.112Z,66.47
2022-07-27T11:34:32.104Z,67.83
2022-07-27T11:37:03.344Z,68.06
2022-07-27T11:40:00.105Z,68.25
2022-07-27T11:42:24.243Z,70.02
2022-07-27T11:44:53.225Z,70.51
2022-07-27T11:47:24.257Z,71.03
2022-07-27T11:49:52.900Z,71.51
2022-07-27T11:52:21.430Z,70.69
2022-07-27T11:54:52.939Z,70.05
2022-07-27T11:57:30.146Z,70.24
2022-07-27T11:59:58.581Z,70.32
2022-07-27T12:02:27.401Z,69.91
2022-07-27T12:05:02.608Z,68.83
2022-07-27T12:07:33.749Z,69.05
2022-07-27T12:10:09.771Z,68.54
2022-07-27T12:12:38.743Z,68.32
2022-07-27T12:15:46.919Z,68.36
2022-07-27T12:18:43.511Z,68.04
2022-07-27T12:21:19.989Z,67.03
2022-07-27T12:23:55.635Z,68.18
2022-07-27T12:26:30.045Z,66.49
2022-07-27T12:29:12.125Z,66.40
2022-07-27T12:31:49.272Z,65.75
2022-07-27T12:34:17.807Z,66.66
2022-07-27T12:36:46.226Z,65.47
2022-07-27T12:39:28.656Z,64.33
2022-07-27T12:42:08.705Z,65.87
2022-07-27T12:44:40.533Z,65.59
2022-07-27T12:47:28.296Z,65.02
2022-07-27T12:50:08.549Z,64.00
2022-07-27T12:52:46.876Z,63.70
2022-07-27T12:55:19.253Z,64.47
2022-07-27T12:57:57.081Z,63.53
2022-07-27T13:00:33.520Z,62.60
2022-07-27T13:03:04.820Z,62.21
2022-07-27T13:05:34.719Z,62.25
2022-07-27T13:08:04.796Z,63.77
2022-07-27T13:10:34.270Z,60.94
2022-07-27T13:13:04.644Z,60.30
2022-07-27T13:15:33.742Z,59.87
2022-07-27T13:18:02.662Z,58.30
2022-07-27T13:20:31.789Z,58.25
2022-07-27T13:23:00.636Z,57.52
2022-07-27T13:25:29.764Z,57.96
2022-07-27T13:28:01.404Z,57.60
2022-07-27T13:30:31.538Z,56.77
2022-07-27T13:33:01.465Z,56.37
2022-07-27T13:35:30.922Z,56.63
2022-07-27T13:38:00.645Z,57.59
2022-07-27T13:40:29.762Z,56.56
2022-07-27T13:42:59.977Z,56.42
2022-07-27T13:45:28.401Z,56.35
2022-07-27T13:48:11.927Z,55.64
2022-07-27T13:50:40.310Z,54.74
2022-07-27T13:53:09.213Z,55.99
2022-07-27T13:55:37.498Z,56.53
2022-07-27T13:58:05.994Z,57.16
2022-07-27T14:00:35.714Z,56.85
2022-07-27T14:03:04.845Z,57.85
2022-07-27T14:05:34.966Z,58.49
2022-07-27T14:08:04.502Z,58.38
2022-07-27T14:10:32.947Z,57.91
2022-07-27T14:13:07.905Z,58.13
2022-07-27T14:15:50.295Z,57.47
2022-07-27T14:18:32.360Z,56.48
2022-07-27T14:21:03.709Z,57.57
2022-07-27T14:23:33.280Z,58.56
2022-07-27T14:26:03.023Z,57.40
2022-07-27T14:28:31.875Z,57.38
2022-07-27T14:31:01.700Z,57.53
2022-07-27T14:33:36.899Z,57.90
2022-07-27T14:36:08.107Z,57.60
2022-07-27T14:38:37.510Z,57.87
2022-07-27T14:41:06.328Z,55.39
2022-07-27T14:43:35.079Z,55.55
2022-07-27T14:46:05.920Z,56.32
2022-07-27T14:49:04.766Z,55.95
2022-07-27T14:51:23.199Z,56.43
2022-07-27T14:53:51.661Z,57.33
2022-07-27T14:56:20.690Z,57.36
2022-07-27T14:58:49.176Z,57.32
2022-07-27T15:01:17.539Z,56.24
2022-07-27T15:03:46.291Z,56.06
2022-07-27T15:06:14.779Z,56.08
2022-07-27T15:08:43.317Z,56.32
2022-07-27T15:11:11.629Z,56.43
2022-07-27T15:13:40.032Z,56.64
2022-07-27T15:16:08.782Z,56.91
2022-07-27T15:18:38.790Z,57.47
2022-07-27T15:21:11.853Z,58.04
2022-07-27T15:23:45.578Z,57.36
2022-07-27T15:26:14.106Z,58.06
2022-07-27T15:28:43.979Z,57.75
2022-07-27T15:31:13.310Z,58.36
2022-07-27T15:33:42.269Z,58.26
2022-07-27T15:36:31.401Z,58.43
2022-07-27T15:39:00.313Z,58.97
2022-07-27T15:41:28.734Z,58.60
2022-07-27T15:44:00.134Z,58.10
2022-07-27T15:46:28.724Z,59.00
2022-07-27T15:48:57.203Z,59.55
2022-07-27T15:51:26.410Z,59.90
2022-07-27T15:53:55.918Z,60.15
2022-07-27T15:56:24.939Z,60.27
2022-07-27T15:58:53.479Z,59.87
2022-07-27T16:01:22.322Z,60.12
2022-07-27T16:03:52.540Z,60.47
2022-07-27T16:06:20.935Z,60.98
2022-07-27T16:08:49.415Z,61.19
2022-07-27T16:11:19.059Z,61.16
2022-07-27T16:13:48.511Z,61.14
2022-07-27T16:16:25.103Z,61.96
2022-07-27T16:18:58.588Z,62.88
2022-07-27T16:21:54.154Z,63.31
2022-07-27T16:24:21.047Z,63.76
2022-07-27T16:26:49.477Z,63.79
2022-07-27T16:29:18.315Z,64.30
2022-07-27T16:31:46.668Z,64.21
2022-07-27T16:34:14.979Z,64.29
2022-07-27T16:36:43.397Z,64.02
2022-07-27T16:39:12.240Z,63.26
2022-07-27T16:41:40.686Z,62.29
2022-07-27T16:44:12.598Z,61.50
2022-07-27T16:46:42.747Z,61.36
2022-07-27T16:49:12.070Z,61.90
2022-07-27T16:51:40.792Z,62.70
2022-07-27T16:54:09.387Z,63.87
2022-07-27T16:56:37.903Z,63.92
2022-07-27T16:59:06.415Z,64.65
2022-07-27T17:01:34.860Z,65.61
2022-07-27T17:04:03.649Z,65.76
2022-07-27T17:06:32.003Z,65.74
2022-07-27T17:09:00.510Z,65.89
2022-07-27T17:11:29.044Z,65.58
2022-07-27T17:13:59.464Z,65.70
2022-07-27T17:16:30.781Z,65.32
2022-07-27T17:18:59.381Z,65.98
2022-07-27T17:21:29.613Z,66.44
2022-07-27T17:23:58.038Z,66.62
2022-07-27T17:26:26.657Z,66.65
2022-07-27T17:28:54.997Z,67.63
2022-07-27T17:31:23.605Z,67.90
2022-07-27T17:33:52.738Z,68.16
2022-07-27T17:36:21.605Z,68.28
2022-07-27T17:38:50.570Z,68.29
2022-07-27T17:41:24.697Z,68.19
2022-07-27T17:43:54.474Z,68.48
2022-07-27T17:46:24.653Z,68.73
2022-07-27T17:48:54.278Z,68.17
2022-07-27T17:51:25.075Z,68.51
2022-07-27T17:53:54.134Z,67.80
2022-07-27T17:56:23.133Z,68.14
2022-07-27T17:58:51.502Z,68.46
2022-07-27T18:01:31.743Z,69.10
2022-07-27T18:04:08.779Z,69.35
2022-07-27T18:06:37.502Z,70.09
2022-07-27T18:09:07.134Z,70.59
2022-07-27T18:11:35.897Z,71.11
2022-07-27T18:14:04.362Z,71.21
2022-07-27T18:16:39.759Z,71.90
2022-07-27T18:19:09.564Z,72.18
2022-07-27T18:21:38.276Z,72.63
2022-07-27T18:24:07.285Z,72.85
2022-07-27T18:26:39.059Z,72.90
2022-07-27T18:29:08.398Z,73.50
2022-07-27T18:31:37.281Z,73.48
2022-07-27T18:34:10.642Z,72.64
2022-07-27T18:36:42.505Z,72.21
2022-07-27T18:39:11.210Z,72.16
2022-07-27T18:41:40.782Z,71.92
2022-07-27T18:44:09.288Z,71.81
2022-07-27T18:46:37.883Z,72.24
2022-07-27T18:49:06.529Z,72.15
2022-07-27T18:51:37.265Z,72.53
2022-07-27T18:54:05.743Z,72.99
2022-07-27T18:56:36.094Z,73.13
2022-07-27T18:59:04.500Z,73.79
2022-07-27T19:01:33.000Z,74.09
2022-07-27T19:04:02.000Z,74.76
2022-07-27T19:06:31.265Z,74.98
2022-07-27T19:08:59.795Z,75.23
2022-07-27T19:11:28.159Z,75.47
2022-07-27T19:13:57.909Z,75.61
2022-07-27T19:16:26.597Z,76.04
2022-07-27T19:18:55.138Z,76.05
2022-07-27T19:21:23.573Z,76.81
2022-07-27T19:23:52.057Z,77.67
2022-07-27T19:26:20.768Z,77.95
2022-07-27T19:28:49.143Z,77.48
2022-07-27T19:31:23.440Z,78.85
2022-07-27T19:33:52.533Z,79.32
2022-07-27T19:36:22.911Z,79.19
2022-07-27T19:38:51.884Z,80.07
2022-07-27T19:41:20.445Z,80.38
2022-07-27T19:43:49.018Z,80.87
2022-07-27T19:46:17.394Z,81.14
2022-07-27T19:48:45.905Z,80.98
2022-07-27T19:51:15.702Z,81.74
2022-07-27T19:53:44.395Z,81.98
2022-07-27T19:56:13.351Z,82.23
2022-07-27T19:58:42.638Z,82.09
2022-07-27T20:01:12.158Z,82.40
2022-07-27T20:03:54.329Z,82.14
2022-07-27T20:06:24.695Z,82.81
2022-07-27T20:08:59.657Z,82.72
2022-07-27T20:11:32.025Z,81.85
2022-07-27T20:14:02.601Z,81.92
2022-07-27T20:16:34.126Z,82.44
2022-07-27T20:19:02.597Z,82.10
2022-07-27T20:21:33.847Z,82.39
2022-07-27T20:24:03.310Z,82.81
2022-07-27T20:26:31.863Z,83.22
2022-07-27T20:29:01.190Z,84.61
2022-07-27T20:31:29.658Z,84.46
2022-07-27T20:33:57.948Z,85.22
2022-07-27T20:36:26.259Z,84.80
2022-07-27T20:38:54.525Z,85.73
2022-07-27T20:41:22.833Z,86.33
2022-07-27T20:43:51.223Z,86.05
2022-07-27T20:46:21.401Z,86.54
2022-07-27T20:48:49.854Z,86.94
2022-07-27T20:51:18.286Z,88.31
2022-07-27T20:53:48.099Z,88.24
2022-07-27T20:56:16.912Z,88.59
2022-07-27T20:58:45.271Z,88.38
2022-07-27T21:01:13.633Z,89.09
2022-07-27T21:03:41.987Z,89.30
2022-07-27T21:06:11.157Z,89.54
2022-07-27T21:08:44.284Z,90.61
2022-07-27T21:11:16.136Z,90.53
2022-07-27T21:13:44.584Z,91.01
2022-07-27T21:16:12.931Z,91.67
2022-07-27T21:18:42.790Z,91.92
2022-07-27T21:21:11.157Z,91.76
2022-07-27T21:23:58.292Z,91.90
2022-07-27T21:26:26.649Z,92.26
2022-07-27T21:28:57.318Z,92.20
2022-07-27T21:31:25.659Z,92.77
2022-07-27T21:33:54.343Z,92.98
2022-07-27T21:36:23.489Z,93.25
2022-07-27T21:38:51.925Z,92.98
2022-07-27T21:41:20.324Z,93.00
2022-07-27T21:43:48.649Z,93.47
2022-07-27T21:46:17.121Z,93.63
2022-07-27T21:48:45.634Z,94.35
2022-07-27T21:51:15.855Z,94.34
2022-07-27T21:53:45.346Z,94.21
2022-07-27T21:56:15.000Z,95.87
2022-07-27T21:58:48.155Z,95.83
2022-07-27T22:01:16.861Z,96.08
2022-07-27T22:03:45.579Z,97.07
2022-07-27T22:06:14.120Z,97.44
2022-07-27T22:08:42.990Z,97.79
2022-07-27T22:11:11.327Z,97.98
2022-07-27T22:13:39.879Z,98.76
2022-07-27T22:16:09.195Z,99.35
2022-07-27T22:18:37.597Z,99.64
2022-07-27T22:21:06.229Z,99.73
2022-07-27T22:23:34.820Z,99.53
2022-07-27T22:26:03.116Z,100.00
2022-07-27T22:28:31.425Z,100.00
2022-07-27T22:31:21.418Z,100.00
2022-07-27T22:33:48.065Z,100.00
2022-07-27T22:36:16.401Z,100.00
2022-07-27T22:38:44.712Z,100.00
2022-07-27T22:41:13.039Z,100.00
2022-07-27T22:43:41.379Z,100.00
2022-07-27T22:46:10.178Z,100.00
2022-07-27T22:48:38.700Z,100.00
2022-07-27T22:51:07.750Z,100.00
2022-07-27T22:53:38.580Z,100.00
2022-07-27T22:56:06.837Z,100.00
2022-07-27T22:58:35.204Z,100.00
2022-07-27T23:01:03.598Z,100.00
2022-07-27T23:03:31.888Z,100.00
2022-07-27T23:06:00.266Z,100.00
2022-07-27T23:08:28.891Z,100.00
2022-07-27T23:10:57.166Z,100.00
2022-07-27T23:13:25.479Z,100.00
2022-07-27T23:16:02.082Z,100.00
2022-07-27T23:18:30.427Z,100.00
2022-07-27T23:20:58.710Z,100.00
2022-07-27T23:23:30.337Z,100.00
2022-07-27T23:26:04.331Z,100.00
2022-07-27T23:28:34.689Z,100.00
2022-07-27T23:31:03.148Z,100.00
2022-07-27T23:33:32.424Z,100.00
2022-07-27T23:36:06.143Z,100.00
2022-07-27T23:38:35.345Z,100.00
2022-07-27T23:41:04.115Z,100.00
2022-07-27T23:43:32.462Z,100.00
2022-07-27T23:46:05.170Z,100.00
2022-07-27T23:48:33.568Z,100.00
2022-07-27T23:51:02.149Z,100.00
2022-07-27T23:53:30.775Z,100.00
2022-07-27T23:55:59.249Z,100.00
2022-07-27T23:58:27.629Z,100.00
